createdAt,value
2016-08-10T00:00:18.804Z,93.41
2016-08-10T00:01:19.460Z,93.41
2016-08-10T00:02:19.428Z,93.5
2016-08-10T00:03:20.196Z,93.5
2016-08-10T00:04:19.366Z,93.41
2016-08-10T00:05:18.631Z,93.5
2016-08-10T00:06:19.296Z,93.6
2016-08-10T00:07:19.271Z,93.31
2016-08-10T00:08:18.533Z,93.79
2016-08-10T00:09:19.207Z,93.12
2016-08-10T00:10:19.161Z,93.6
2016-08-10T00:11:18.433Z,93.7
2016-08-10T00:12:19.093Z,93.7
2016-08-10T00:13:18.365Z,93.6
2016-08-10T00:14:19.028Z,93.7
2016-08-10T00:15:18.999Z,93.7
2016-08-10T00:16:18.964Z,93.7
2016-08-10T00:17:18.929Z,93.6
2016-08-10T00:18:18.200Z,93.6
2016-08-10T00:19:18.860Z,93.79
2016-08-10T00:20:18.845Z,93.5
2016-08-10T00:21:18.799Z,93.79
2016-08-10T00:22:18.069Z,94.07
2016-08-10T00:23:18.033Z,93.79
2016-08-10T00:24:18.696Z,93.79
2016-08-10T00:25:18.670Z,93.88
2016-08-10T00:26:18.630Z,94.07
2016-08-10T00:27:18.597Z,94.36
2016-08-10T00:28:17.866Z,94.07
2016-08-10T00:29:18.544Z,94.07
2016-08-10T00:30:17.799Z,94.46
2016-08-10T00:31:18.463Z,94.46
2016-08-10T00:32:18.428Z,94.07
2016-08-10T00:33:17.699Z,94.17
2016-08-10T00:34:18.361Z,94.36
2016-08-10T00:35:18.330Z,94.46
2016-08-10T00:36:18.321Z,94.46
2016-08-10T00:37:17.567Z,94.36
2016-08-10T00:38:18.229Z,94.17
2016-08-10T00:39:18.195Z,94.07
2016-08-10T00:40:18.168Z,94.17
2016-08-10T00:41:18.127Z,94.17
2016-08-10T00:42:18.097Z,94.07
2016-08-10T00:43:18.062Z,94.07
2016-08-10T00:44:18.030Z,94.17
2016-08-10T00:45:17.996Z,94.17
2016-08-10T00:46:17.959Z,94.46
2016-08-10T00:47:17.935Z,94.36
2016-08-10T00:48:17.203Z,94.65
2016-08-10T00:49:17.164Z,94.55
2016-08-10T00:50:17.832Z,94.55
2016-08-10T00:51:17.096Z,94.46
2016-08-10T00:52:17.764Z,94.46
2016-08-10T00:53:17.033Z,94.55
2016-08-10T00:54:17.000Z,94.74
2016-08-10T00:55:17.663Z,94.46
2016-08-10T00:56:17.629Z,94.17
2016-08-10T00:57:17.601Z,94.74
2016-08-10T00:58:16.869Z,94.46
2016-08-10T00:59:16.834Z,94.27
2016-08-10T01:00:17.496Z,94.17
2016-08-10T01:01:17.465Z,94.17
2016-08-10T01:02:17.443Z,94.17
2016-08-10T01:03:17.401Z,94.17
2016-08-10T01:04:17.369Z,94.17
2016-08-10T01:05:17.329Z,94.27
2016-08-10T01:06:17.304Z,94.27
2016-08-10T01:07:17.263Z,94.27
2016-08-10T01:08:17.235Z,94.36
2016-08-10T01:09:17.215Z,94.36
2016-08-10T01:10:16.468Z,93.7
2016-08-10T01:11:17.131Z,93.6
2016-08-10T01:12:17.098Z,93.7
2016-08-10T01:13:17.064Z,93.7
2016-08-10T01:14:17.033Z,93.21
2016-08-10T01:15:17.003Z,93.7
2016-08-10T01:16:16.268Z,93.31
2016-08-10T01:17:16.932Z,93.12
2016-08-10T01:18:16.202Z,93.41
2016-08-10T01:19:16.168Z,93.31
2016-08-10T01:20:16.834Z,93.31
2016-08-10T01:21:16.799Z,93.21
2016-08-10T01:22:16.766Z,93.41
2016-08-10T01:23:16.061Z,93.6
2016-08-10T01:24:16.701Z,93.41
2016-08-10T01:25:16.663Z,93.7
2016-08-10T01:26:16.633Z,92.93
2016-08-10T01:27:15.904Z,92.45
2016-08-10T01:28:15.869Z,92.74
2016-08-10T01:29:15.835Z,92.79
2016-08-10T01:30:16.700Z,92.45
2016-08-10T01:31:16.467Z,92.59
2016-08-10T01:32:16.446Z,92.4
2016-08-10T01:33:15.704Z,92.02
2016-08-10T01:34:15.665Z,92.45
2016-08-10T01:35:15.637Z,92.3
2016-08-10T01:36:16.302Z,92.07
2016-08-10T01:37:16.264Z,91.88
2016-08-10T01:38:16.232Z,92.11
2016-08-10T01:39:15.504Z,92.02
2016-08-10T01:40:16.165Z,92.4
2016-08-10T01:41:16.142Z,92.5
2016-08-10T01:42:16.120Z,91.74
2016-08-10T01:43:16.070Z,91.64
2016-08-10T01:44:16.034Z,91.64
2016-08-10T01:45:16.002Z,92.4
2016-08-10T01:46:15.970Z,92.4
2016-08-10T01:47:15.945Z,92.5
2016-08-10T01:48:15.902Z,92.4
2016-08-10T01:49:15.174Z,92.4
2016-08-10T01:50:15.841Z,92.5
2016-08-10T01:51:15.114Z,92.5
2016-08-10T01:52:15.770Z,92.21
2016-08-10T01:53:15.735Z,92.4
2016-08-10T01:54:15.007Z,92.21
2016-08-10T01:55:15.684Z,92.4
2016-08-10T01:56:15.639Z,92.02
2016-08-10T01:57:15.603Z,92.21
2016-08-10T01:58:15.581Z,92.21
2016-08-10T01:59:14.843Z,92.21
2016-08-10T02:00:15.509Z,92.4
2016-08-10T02:01:15.472Z,91.35
2016-08-10T02:02:15.438Z,92.21
2016-08-10T02:03:14.708Z,91.64
2016-08-10T02:04:14.677Z,91.64
2016-08-10T02:05:14.643Z,91.54
2016-08-10T02:06:15.308Z,91.45
2016-08-10T02:07:14.577Z,91.74
2016-08-10T02:08:14.549Z,91.64
2016-08-10T02:09:15.207Z,91.74
2016-08-10T02:10:15.178Z,91.54
2016-08-10T02:11:15.142Z,91.74
2016-08-10T02:12:15.114Z,91.83
2016-08-10T02:13:14.380Z,91.74
2016-08-10T02:14:15.046Z,91.83
2016-08-10T02:15:15.011Z,91.74
2016-08-10T02:16:14.980Z,91.54
2016-08-10T02:17:14.954Z,91.74
2016-08-10T02:18:14.911Z,91.74
2016-08-10T02:19:14.181Z,91.74
2016-08-10T02:20:14.844Z,91.83
2016-08-10T02:21:14.116Z,91.83
2016-08-10T02:22:14.088Z,91.64
2016-08-10T02:23:14.049Z,91.83
2016-08-10T02:24:14.710Z,91.54
2016-08-10T02:25:13.984Z,91.54
2016-08-10T02:26:14.648Z,91.93
2016-08-10T02:27:14.616Z,91.83
2016-08-10T02:28:14.576Z,91.25
2016-08-10T02:29:14.546Z,91.35
2016-08-10T02:30:13.868Z,91.25
2016-08-10T02:31:14.480Z,91.25
2016-08-10T02:32:14.447Z,91.35
2016-08-10T02:33:14.419Z,91.35
2016-08-10T02:34:13.690Z,91.83
2016-08-10T02:35:14.364Z,91.54
2016-08-10T02:36:14.320Z,91.83
2016-08-10T02:37:14.283Z,91.93
2016-08-10T02:39:14.219Z,91.35
2016-08-10T02:40:14.185Z,91.83
2016-08-10T02:41:13.455Z,91.54
2016-08-10T02:42:14.120Z,91.93
2016-08-10T02:43:14.088Z,91.64
2016-08-10T02:44:14.065Z,91.64
2016-08-10T02:45:14.021Z,92.3
2016-08-10T02:46:13.989Z,92.21
2016-08-10T02:47:13.957Z,92.11
2016-08-10T02:48:13.921Z,92.02
2016-08-10T02:49:13.192Z,92.3
2016-08-10T02:50:13.157Z,92.02
2016-08-10T02:51:13.829Z,92.4
2016-08-10T02:52:13.790Z,92.4
2016-08-10T02:54:13.028Z,92.3
2016-08-10T02:55:13.691Z,92.5
2016-08-10T02:56:13.654Z,92.79
2016-08-10T02:57:13.634Z,92.79
2016-08-10T02:58:13.594Z,92.69
2016-08-10T02:59:13.559Z,92.79
2016-08-10T03:00:13.524Z,92.79
2016-08-10T03:01:12.798Z,92.97
2016-08-10T03:02:13.461Z,92.88
2016-08-10T03:03:13.427Z,93.45
2016-08-10T03:04:13.395Z,93.45
2016-08-10T03:05:13.362Z,93.26
2016-08-10T03:06:13.324Z,93.36
2016-08-10T03:07:12.599Z,93.55
2016-08-10T03:09:13.230Z,93.16
2016-08-10T03:10:13.195Z,93.45
2016-08-10T03:11:13.158Z,93.45
2016-08-10T03:12:12.432Z,93.26
2016-08-10T03:13:13.095Z,92.97
2016-08-10T03:14:13.071Z,93.07
2016-08-10T03:15:13.030Z,93.45
2016-08-10T03:16:12.996Z,93.45
2016-08-10T03:17:12.962Z,93.26
2016-08-10T03:18:12.933Z,92.88
2016-08-10T03:19:12.897Z,93.16
2016-08-10T03:20:12.866Z,93.16
2016-08-10T03:21:12.834Z,93.45
2016-08-10T03:22:12.805Z,93.65
2016-08-10T03:23:12.765Z,93.45
2016-08-10T03:24:12.729Z,93.55
2016-08-10T03:25:12.008Z,93.65
2016-08-10T03:26:12.668Z,93.93
2016-08-10T03:27:12.635Z,93.74
2016-08-10T03:28:12.597Z,93.74
2016-08-10T03:29:12.565Z,93.45
2016-08-10T03:30:13.033Z,93.65
2016-08-10T03:31:11.804Z,93.45
2016-08-10T03:32:12.466Z,93.45
2016-08-10T03:33:12.433Z,93.45
2016-08-10T03:34:12.403Z,93.45
2016-08-10T03:35:12.369Z,93.45
2016-08-10T03:36:12.337Z,93.45
2016-08-10T03:37:12.304Z,93.55
2016-08-10T03:38:12.281Z,93.74
2016-08-10T03:39:12.238Z,93.45
2016-08-10T03:40:12.205Z,93.45
2016-08-10T03:41:11.472Z,93.65
2016-08-10T03:42:12.137Z,93.26
2016-08-10T03:43:12.108Z,93.16
2016-08-10T03:44:12.072Z,93.36
2016-08-10T03:45:12.036Z,93.16
2016-08-10T03:46:12.002Z,93.16
2016-08-10T03:47:11.975Z,93.65
2016-08-10T03:48:11.938Z,93.36
2016-08-10T03:49:11.907Z,93.26
2016-08-10T03:50:11.873Z,93.36
2016-08-10T03:51:11.840Z,93.45
2016-08-10T03:52:11.805Z,93.07
2016-08-10T03:53:11.775Z,93.16
2016-08-10T03:54:11.741Z,93.16
2016-08-10T03:55:11.709Z,93.16
2016-08-10T03:56:11.673Z,93.16
2016-08-10T03:57:11.640Z,93.55
2016-08-10T03:58:11.608Z,93.26
2016-08-10T03:59:10.877Z,93.45
2016-08-10T04:00:11.552Z,93.45
2016-08-10T04:01:11.508Z,93.36
2016-08-10T04:02:11.473Z,93.36
2016-08-10T04:03:11.446Z,93.26
2016-08-10T04:04:10.715Z,93.45
2016-08-10T04:05:11.394Z,93.16
2016-08-10T04:06:11.344Z,92.88
2016-08-10T04:07:11.312Z,93.16
2016-08-10T04:08:11.278Z,93.45
2016-08-10T04:09:11.244Z,93.65
2016-08-10T04:10:10.514Z,93.93
2016-08-10T04:11:11.178Z,93.45
2016-08-10T04:12:11.145Z,93.55
2016-08-10T04:13:10.421Z,93.79
2016-08-10T04:14:11.081Z,93.7
2016-08-10T04:15:11.045Z,93.5
2016-08-10T04:16:11.019Z,93.5
2016-08-10T04:17:10.978Z,93.79
2016-08-10T04:18:10.947Z,93.88
2016-08-10T04:19:10.913Z,93.98
2016-08-10T04:20:10.183Z,93.79
2016-08-10T04:21:10.849Z,94.07
2016-08-10T04:22:10.815Z,93.98
2016-08-10T04:23:10.093Z,94.17
2016-08-10T04:24:10.749Z,94.27
2016-08-10T04:25:10.712Z,94.36
2016-08-10T04:26:10.681Z,94.17
2016-08-10T04:27:10.648Z,93.98
2016-08-10T04:28:10.616Z,93.98
2016-08-10T04:29:10.592Z,93.79
2016-08-10T04:30:10.549Z,94.46
2016-08-10T04:31:10.513Z,94.17
2016-08-10T04:32:09.786Z,94.84
2016-08-10T04:33:10.448Z,94.65
2016-08-10T04:34:09.728Z,94.65
2016-08-10T04:35:09.684Z,94.74
2016-08-10T04:36:10.351Z,95.03
2016-08-10T04:37:10.316Z,94.55
2016-08-10T04:38:10.292Z,95.32
2016-08-10T04:39:10.247Z,95.03
2016-08-10T04:40:10.214Z,95.41
2016-08-10T04:41:10.184Z,95.22
2016-08-10T04:42:09.454Z,95.12
2016-08-10T04:43:10.115Z,94.84
2016-08-10T04:44:10.088Z,95.27
2016-08-10T04:45:09.354Z,94.89
2016-08-10T04:46:10.019Z,95.17
2016-08-10T04:47:09.988Z,95.07
2016-08-10T04:48:09.950Z,95.17
2016-08-10T04:49:09.921Z,95.07
2016-08-10T04:50:09.885Z,94.89
2016-08-10T04:51:09.155Z,94.79
2016-08-10T04:52:09.124Z,94.98
2016-08-10T04:53:09.784Z,94.79
2016-08-10T04:54:09.754Z,94.79
2016-08-10T04:55:09.724Z,95.07
2016-08-10T04:56:09.688Z,94.22
2016-08-10T04:57:09.654Z,94.51
2016-08-10T04:58:09.623Z,94.02
2016-08-10T04:59:09.589Z,94.31
2016-08-10T05:00:09.552Z,94.41
2016-08-10T05:01:09.519Z,93.55
2016-08-10T05:02:09.491Z,93.74
2016-08-10T05:03:09.451Z,93.45
2016-08-10T05:04:09.425Z,93.55
2016-08-10T05:05:09.392Z,93.65
2016-08-10T05:06:09.356Z,93.12
2016-08-10T05:07:09.328Z,93.6
2016-08-10T05:08:09.294Z,93.5
2016-08-10T05:09:09.253Z,92.83
2016-08-10T05:10:09.226Z,92.93
2016-08-10T05:11:09.191Z,92.74
2016-08-10T05:12:09.158Z,92.54
2016-08-10T05:13:09.124Z,92.35
2016-08-10T05:14:09.093Z,92.25
2016-08-10T05:15:09.063Z,92.16
2016-08-10T05:16:09.028Z,91.59
2016-08-10T05:17:08.996Z,91.78
2016-08-10T05:18:08.963Z,91.97
2016-08-10T05:19:08.931Z,91.59
2016-08-10T05:20:08.902Z,91.39
2016-08-10T05:21:08.868Z,91.59
2016-08-10T05:22:08.841Z,91.68
2016-08-10T05:23:08.801Z,91.59
2016-08-10T05:24:08.775Z,91.02
2016-08-10T05:25:08.735Z,91.2
2016-08-10T05:26:08.701Z,91.02
2016-08-10T05:27:08.678Z,91.11
2016-08-10T05:28:08.636Z,91.49
2016-08-10T05:29:07.908Z,91.39
2016-08-10T05:30:08.570Z,91.02
2016-08-10T05:31:08.539Z,91.2
2016-08-10T05:32:08.509Z,91.2
2016-08-10T05:33:08.479Z,90.73
2016-08-10T05:34:08.439Z,90.63
2016-08-10T05:35:08.406Z,90.44
2016-08-10T05:36:08.378Z,90.06
2016-08-10T05:37:07.647Z,90.39
2016-08-10T05:38:08.333Z,90.06
2016-08-10T05:39:08.278Z,90.06
2016-08-10T05:40:07.554Z,89.96
2016-08-10T05:41:08.215Z,89.77
2016-08-10T05:42:08.179Z,89.62
2016-08-10T05:43:08.150Z,89.96
2016-08-10T05:44:08.114Z,89.58
2016-08-10T05:45:08.081Z,89.62
2016-08-10T05:46:08.053Z,89.87
2016-08-10T05:47:08.020Z,89.81
2016-08-10T05:48:07.983Z,89.72
2016-08-10T05:49:07.953Z,89.81
2016-08-10T05:50:07.921Z,89.91
2016-08-10T05:51:07.886Z,89.62
2016-08-10T05:52:07.856Z,89.53
2016-08-10T05:53:07.127Z,89.62
2016-08-10T05:54:07.797Z,89.34
2016-08-10T05:55:07.760Z,89.24
2016-08-10T05:56:07.726Z,89.72
2016-08-10T05:57:07.694Z,89.24
2016-08-10T05:58:07.662Z,89.34
2016-08-10T05:59:07.629Z,89.15
2016-08-10T06:00:07.596Z,89.34
2016-08-10T06:01:07.565Z,89.05
2016-08-10T06:02:07.558Z,88.71
2016-08-10T06:03:06.801Z,89.19
2016-08-10T06:04:07.467Z,88.81
2016-08-10T06:05:06.741Z,88.33
2016-08-10T06:06:07.401Z,88.52
2016-08-10T06:07:07.375Z,87.95
2016-08-10T06:08:07.347Z,88.04
2016-08-10T06:09:06.614Z,87.76
2016-08-10T06:10:07.275Z,88.13
2016-08-10T06:11:07.239Z,87.66
2016-08-10T06:12:07.211Z,87.66
2016-08-10T06:13:07.180Z,87.61
2016-08-10T06:14:07.146Z,87.08
2016-08-10T06:15:07.117Z,87.41
2016-08-10T06:16:07.084Z,86.94
2016-08-10T06:17:07.052Z,87.03
2016-08-10T06:18:06.320Z,86.55
2016-08-10T06:19:06.988Z,86.13
2016-08-10T06:20:06.257Z,86.04
2016-08-10T06:21:06.923Z,85.6
2016-08-10T06:22:06.197Z,85.5
2016-08-10T06:23:06.163Z,85.21
2016-08-10T06:25:06.798Z,85.41
2016-08-10T06:26:06.762Z,85.12
2016-08-10T06:27:06.737Z,84.74
2016-08-10T06:28:06.005Z,83.97
2016-08-10T06:29:06.673Z,83.68
2016-08-10T06:30:06.638Z,82.86
2016-08-10T06:31:06.608Z,82.48
2016-08-10T06:32:06.580Z,82.19
2016-08-10T06:33:06.547Z,82.57
2016-08-10T06:34:05.814Z,81.9
2016-08-10T06:35:06.497Z,82.09
2016-08-10T06:36:06.449Z,81.52
2016-08-10T06:37:06.419Z,81.81
2016-08-10T06:38:06.388Z,80.85
2016-08-10T06:39:06.354Z,80.85
2016-08-10T06:40:06.322Z,80.76
2016-08-10T06:41:06.309Z,80.85
2016-08-10T06:42:05.567Z,80.47
2016-08-10T06:43:06.230Z,80.03
2016-08-10T06:44:05.505Z,79.64
2016-08-10T06:45:06.169Z,79.16
2016-08-10T06:46:06.137Z,78.59
2016-08-10T06:47:05.409Z,78.11
2016-08-10T06:48:06.075Z,77.44
2016-08-10T06:49:05.349Z,77.73
2016-08-10T06:50:06.015Z,77.25
2016-08-10T06:51:05.989Z,76.96
2016-08-10T06:52:05.957Z,76.86
2016-08-10T06:53:05.921Z,76.81
2016-08-10T06:54:05.888Z,76.86
2016-08-10T06:55:05.857Z,76.77
2016-08-10T06:56:05.834Z,76.48
2016-08-10T06:57:05.794Z,76.29
2016-08-10T06:58:05.773Z,76.19
2016-08-10T06:59:05.037Z,76.57
2016-08-10T07:00:05.702Z,76.39
2016-08-10T07:01:05.670Z,76.39
2016-08-10T07:02:05.643Z,76.19
2016-08-10T07:03:04.913Z,76.29
2016-08-10T07:04:05.582Z,76.19
2016-08-10T07:05:05.548Z,76.39
2016-08-10T07:06:05.518Z,76.1
2016-08-10T07:07:05.488Z,75.9
2016-08-10T07:08:04.757Z,76.04
2016-08-10T07:09:05.427Z,75.56
2016-08-10T07:10:05.395Z,75.27
2016-08-10T07:11:05.365Z,74.98
2016-08-10T07:12:05.332Z,74.85
2016-08-10T07:13:04.606Z,74.57
2016-08-10T07:14:04.574Z,74.37
2016-08-10T07:15:05.250Z,74.47
2016-08-10T07:16:04.514Z,74.57
2016-08-10T07:17:05.259Z,74.76
2016-08-10T07:18:05.151Z,74.08
2016-08-10T07:19:05.115Z,74.18
2016-08-10T07:20:04.397Z,73.61
2016-08-10T07:21:05.057Z,73.13
2016-08-10T07:22:05.025Z,73.03
2016-08-10T07:23:04.993Z,72.55
2016-08-10T07:24:04.967Z,72.68
2016-08-10T07:25:04.937Z,71.72
2016-08-10T07:26:04.902Z,71.82
2016-08-10T07:27:04.873Z,71.92
2016-08-10T07:28:04.839Z,71.44
2016-08-10T07:29:04.116Z,71.44
2016-08-10T07:30:04.786Z,71.53
2016-08-10T07:31:04.749Z,70.76
2016-08-10T07:32:04.719Z,70.86
2016-08-10T07:33:04.686Z,70.96
2016-08-10T07:34:04.655Z,70.48
2016-08-10T07:35:04.629Z,70.29
2016-08-10T07:36:04.595Z,69.93
2016-08-10T07:37:04.562Z,70.23
2016-08-10T07:38:04.532Z,69.65
2016-08-10T07:39:04.503Z,68.79
2016-08-10T07:40:04.474Z,68.88
2016-08-10T07:41:03.746Z,68.4
2016-08-10T07:42:04.415Z,68.4
2016-08-10T07:43:04.380Z,68.12
2016-08-10T07:44:04.353Z,67.83
2016-08-10T07:45:04.325Z,67.47
2016-08-10T07:46:04.292Z,67.29
2016-08-10T07:47:04.262Z,67.09
2016-08-10T07:48:04.229Z,67
2016-08-10T07:49:04.200Z,66.61
2016-08-10T07:50:03.482Z,65.65
2016-08-10T07:51:04.143Z,65.65
2016-08-10T07:52:04.113Z,65.17
2016-08-10T07:53:03.389Z,65.17
2016-08-10T07:54:03.355Z,65.36
2016-08-10T07:55:04.018Z,65.08
2016-08-10T07:56:03.989Z,64.89
2016-08-10T07:57:03.268Z,64.79
2016-08-10T07:58:03.928Z,64.79
2016-08-10T07:59:03.205Z,65.08
2016-08-10T08:00:03.175Z,64.89
2016-08-10T08:01:03.836Z,64.5
2016-08-10T08:02:03.809Z,65.17
2016-08-10T08:03:03.081Z,65.08
2016-08-10T08:04:03.750Z,64.89
2016-08-10T08:05:03.720Z,65.14
2016-08-10T08:06:03.693Z,65.43
2016-08-10T08:07:03.659Z,65.52
2016-08-10T08:08:03.628Z,65.62
2016-08-10T08:09:02.904Z,65.81
2016-08-10T08:10:02.872Z,65.91
2016-08-10T08:11:03.538Z,66.19
2016-08-10T08:12:03.509Z,66.67
2016-08-10T08:13:03.478Z,66.58
2016-08-10T08:14:03.446Z,66.96
2016-08-10T08:15:03.420Z,67.06
2016-08-10T08:16:02.693Z,66.96
2016-08-10T08:17:02.660Z,66.67
2016-08-10T08:18:02.636Z,66.19
2016-08-10T08:19:03.294Z,65.72
2016-08-10T08:20:03.264Z,65.43
2016-08-10T08:21:03.234Z,65.33
2016-08-10T08:22:02.515Z,64.85
2016-08-10T08:23:03.178Z,64.59
2016-08-10T08:24:03.143Z,64.22
2016-08-10T08:25:03.119Z,63.83
2016-08-10T08:26:03.086Z,63.28
2016-08-10T08:27:03.056Z,62.71
2016-08-10T08:28:03.031Z,60.91
2016-08-10T08:29:02.998Z,59.69
2016-08-10T08:30:02.963Z,57.22
2016-08-10T08:31:02.935Z,55.16
2016-08-10T08:32:02.907Z,52.04
2016-08-10T08:33:02.184Z,49.8
2016-08-10T08:34:02.850Z,46.27
2016-08-10T08:35:02.132Z,43.07
2016-08-10T08:36:02.796Z,39.65
2016-08-10T08:37:02.764Z,36.42
2016-08-10T08:38:02.753Z,33.11
2016-08-10T08:39:02.713Z,31.01
2016-08-10T08:40:02.693Z,29.47
2016-08-10T08:41:02.669Z,27.45
2016-08-10T08:42:02.649Z,26.98
2016-08-10T08:43:02.622Z,27.66
2016-08-10T08:44:02.595Z,28.33
2016-08-10T08:45:02.578Z,28.99
2016-08-10T08:46:02.547Z,29.93
2016-08-10T08:47:02.521Z,30.78
2016-08-10T08:48:02.504Z,31.04
2016-08-10T08:49:02.478Z,30.75
2016-08-10T08:50:02.456Z,29.39
2016-08-10T08:51:02.433Z,28.26
2016-08-10T08:52:02.412Z,27.3
2016-08-10T08:53:02.391Z,26.64
2016-08-10T08:54:01.667Z,26.35
2016-08-10T08:55:01.651Z,26.54
2016-08-10T08:56:02.319Z,27.4
2016-08-10T08:57:01.602Z,28.44
2016-08-10T08:58:02.275Z,29.68
2016-08-10T08:59:02.253Z,31.19
2016-08-10T09:00:02.231Z,33.39
2016-08-10T09:01:01.510Z,34.33
2016-08-10T09:02:02.184Z,35.46
2016-08-10T09:03:02.161Z,36.6
2016-08-10T09:04:02.139Z,37.73
2016-08-10T09:05:01.425Z,38.68
2016-08-10T09:06:02.090Z,39.72
2016-08-10T09:07:02.065Z,40.67
2016-08-10T09:08:02.040Z,41.71
2016-08-10T09:09:01.321Z,42.75
2016-08-10T09:10:01.993Z,42.94
2016-08-10T09:11:01.967Z,43.98
2016-08-10T09:12:01.943Z,45.04
2016-08-10T09:13:01.915Z,45.31
2016-08-10T09:14:01.886Z,46.08
2016-08-10T09:15:01.864Z,46.45
2016-08-10T09:16:01.141Z,47.12
2016-08-10T09:17:01.812Z,47.8
2016-08-10T09:18:01.788Z,48.35
2016-08-10T09:19:01.756Z,49.02
2016-08-10T09:20:01.033Z,48.64
2016-08-10T09:21:01.006Z,49.29
2016-08-10T09:22:00.981Z,49.77
2016-08-10T09:23:01.651Z,50.15
2016-08-10T09:24:01.624Z,50.25
2016-08-10T09:25:01.596Z,50.45
2016-08-10T09:26:00.875Z,50.54
2016-08-10T09:27:01.546Z,50.13
2016-08-10T09:28:01.516Z,50.13
2016-08-10T09:29:00.796Z,50.32
2016-08-10T09:30:01.457Z,50.23
2016-08-10T09:31:01.438Z,50.04
2016-08-10T09:32:01.402Z,49.74
2016-08-10T09:33:01.375Z,49
2016-08-10T09:34:00.650Z,49.1
2016-08-10T09:35:01.319Z,48.83
2016-08-10T09:36:01.297Z,48.54
2016-08-10T09:37:01.262Z,48.54
2016-08-10T09:38:00.537Z,48.35
2016-08-10T09:39:01.209Z,49.02
2016-08-10T09:40:01.180Z,49.77
2016-08-10T09:41:01.155Z,49.38
2016-08-10T09:42:00.436Z,49.96
2016-08-10T09:43:01.095Z,50.13
2016-08-10T09:44:01.066Z,50.32
2016-08-10T09:45:01.040Z,50.51
2016-08-10T09:46:01.008Z,50.71
2016-08-10T09:47:00.985Z,50.9
2016-08-10T09:48:00.955Z,50.13
2016-08-10T09:49:00.932Z,49.65
2016-08-10T09:50:00.906Z,49.46
2016-08-10T09:51:00.870Z,48.97
2016-08-10T09:52:00.837Z,47.82
2016-08-10T09:53:00.810Z,48.18
2016-08-10T09:54:00.802Z,47.8
2016-08-10T09:55:00.757Z,47.61
2016-08-10T09:56:00.723Z,48.66
2016-08-10T09:57:00.702Z,49.82
2016-08-10T09:58:00.678Z,50.4
2016-08-10T09:58:59.960Z,50.87
2016-08-10T10:00:00.616Z,51.17
2016-08-10T10:01:00.586Z,51.45
2016-08-10T10:02:00.556Z,52.22
2016-08-10T10:03:00.527Z,54.05
2016-08-10T10:03:59.801Z,55.2
2016-08-10T10:05:00.493Z,55.66
2016-08-10T10:05:59.744Z,55.82
2016-08-10T10:07:00.415Z,55.15
2016-08-10T10:08:00.381Z,55.05
2016-08-10T10:09:00.352Z,55.73
2016-08-10T10:10:00.326Z,55.53
2016-08-10T10:11:00.302Z,55.53
2016-08-10T10:11:59.572Z,55.34
2016-08-10T10:12:59.546Z,55.24
2016-08-10T10:14:00.208Z,56.3
2016-08-10T10:15:00.183Z,56.18
2016-08-10T10:15:59.456Z,56.18
2016-08-10T10:17:00.121Z,56.27
2016-08-10T10:18:00.094Z,56.08
2016-08-10T10:19:00.071Z,56.18
2016-08-10T10:20:00.031Z,58.64
2016-08-10T10:21:00.004Z,59.96
2016-08-10T10:21:59.977Z,61.98
2016-08-10T10:22:59.949Z,65.91
2016-08-10T10:23:59.919Z,67.92
2016-08-10T10:24:59.427Z,68.69
2016-08-10T10:25:59.859Z,68.95
2016-08-10T10:26:59.830Z,70
2016-08-10T10:27:59.801Z,70.19
2016-08-10T10:28:59.774Z,70
2016-08-10T10:29:59.739Z,70.44
2016-08-10T10:30:59.022Z,70.44
2016-08-10T10:31:59.684Z,69.33
2016-08-10T10:32:59.649Z,67.5
2016-08-10T10:33:59.623Z,67.02
2016-08-10T10:34:59.594Z,66.93
2016-08-10T10:35:59.562Z,66.67
2016-08-10T10:36:59.548Z,66.1
2016-08-10T10:37:59.507Z,65.14
2016-08-10T10:38:59.492Z,64.31
2016-08-10T10:40:59.415Z,64.79
2016-08-10T10:41:59.383Z,66.61
2016-08-10T10:42:59.352Z,68.15
2016-08-10T10:43:59.322Z,68.79
2016-08-10T10:44:59.294Z,69.17
2016-08-10T10:45:59.263Z,70.61
2016-08-10T10:46:59.232Z,70.51
2016-08-10T10:47:59.205Z,70.09
2016-08-10T10:48:59.175Z,69.04
2016-08-10T10:49:58.448Z,70.29
2016-08-10T10:50:59.116Z,70.67
2016-08-10T10:51:58.389Z,70
2016-08-10T10:52:58.359Z,69.9
2016-08-10T10:53:58.331Z,69.52
2016-08-10T10:55:58.270Z,69.71
2016-08-10T10:56:58.937Z,70.13
2016-08-10T10:57:58.207Z,70.48
2016-08-10T10:58:58.878Z,71.19
2016-08-10T10:59:58.850Z,71.05
2016-08-10T11:00:58.118Z,69.52
2016-08-10T11:01:58.087Z,68.46
2016-08-10T11:02:58.755Z,67.06
2016-08-10T11:03:58.736Z,67.92
2016-08-10T11:04:58.716Z,67.54
2016-08-10T11:05:58.665Z,66
2016-08-10T11:06:57.937Z,66.1
2016-08-10T11:07:57.907Z,66.03
2016-08-10T11:08:58.574Z,66.33
2016-08-10T11:10:58.515Z,68.21
2016-08-10T11:11:58.487Z,69.93
2016-08-10T11:12:57.757Z,71.44
2016-08-10T11:13:58.424Z,72.68
2016-08-10T11:14:57.699Z,72.45
2016-08-10T11:15:58.362Z,73.61
2016-08-10T11:16:57.634Z,74.15
2016-08-10T11:17:58.310Z,75.87
2016-08-10T11:18:58.283Z,76.79
2016-08-10T11:19:58.240Z,78.61
2016-08-10T11:20:58.215Z,80.04
2016-08-10T11:21:57.486Z,82.15
2016-08-10T11:22:57.453Z,82.87
2016-08-10T11:23:58.119Z,83.36
2016-08-10T11:24:58.091Z,84.69
2016-08-10T11:25:58.058Z,85.08
2016-08-10T11:26:58.025Z,85.51
2016-08-10T11:27:57.994Z,86.18
2016-08-10T11:28:57.266Z,87.14
2016-08-10T11:29:57.931Z,89.05
2016-08-10T11:30:57.901Z,91.11
2016-08-10T11:31:57.868Z,92.45
2016-08-10T11:32:57.839Z,93.69
2016-08-10T11:33:57.807Z,94.31
2016-08-10T11:34:57.074Z,95.17
2016-08-10T11:35:57.740Z,96.22
2016-08-10T11:36:57.703Z,96.61
2016-08-10T11:37:57.675Z,95.75
2016-08-10T11:38:57.641Z,95.27
2016-08-10T11:39:56.911Z,95.46
2016-08-10T11:40:57.581Z,96.08
2016-08-10T11:41:57.546Z,96.08
2016-08-10T11:42:57.536Z,95.79
2016-08-10T11:43:57.481Z,96.17
2016-08-10T11:44:57.459Z,96.75
2016-08-10T11:45:57.413Z,97.52
2016-08-10T11:46:57.383Z,97.13
2016-08-10T11:47:57.348Z,96.84
2016-08-10T11:48:57.316Z,97.23
2016-08-10T11:49:57.279Z,97.28
2016-08-10T11:50:57.252Z,96.99
2016-08-10T11:51:57.216Z,96.42
2016-08-10T11:52:57.180Z,96.61
2016-08-10T11:53:57.149Z,96.66
2016-08-10T11:54:57.120Z,96.75
2016-08-10T11:55:57.083Z,96.37
2016-08-10T11:56:56.354Z,96.37
2016-08-10T11:57:57.019Z,96.37
2016-08-10T11:58:56.982Z,96.27
2016-08-10T11:59:56.256Z,96.75
2016-08-10T12:00:56.918Z,96.37
2016-08-10T12:01:56.889Z,96.17
2016-08-10T12:02:56.849Z,96.94
2016-08-10T12:03:56.816Z,96.17
2016-08-10T12:04:56.785Z,96.84
2016-08-10T12:05:56.751Z,96.75
2016-08-10T12:06:56.716Z,96.7
2016-08-10T12:07:56.684Z,96.8
2016-08-10T12:08:56.649Z,96.13
2016-08-10T12:09:56.618Z,95.17
2016-08-10T12:10:56.581Z,95.27
2016-08-10T12:11:56.550Z,95.07
2016-08-10T12:12:56.515Z,95.36
2016-08-10T12:13:56.486Z,94.89
2016-08-10T12:14:56.449Z,94.41
2016-08-10T12:15:56.416Z,94.22
2016-08-10T12:16:55.694Z,94.22
2016-08-10T12:17:56.348Z,94.79
2016-08-10T12:18:56.319Z,94.41
2016-08-10T12:19:56.291Z,93.36
2016-08-10T12:20:56.253Z,91.16
2016-08-10T12:21:56.222Z,91.06
2016-08-10T12:22:56.184Z,91.25
2016-08-10T12:23:56.149Z,91.25
2016-08-10T12:24:56.117Z,90.97
2016-08-10T12:25:56.090Z,91.35
2016-08-10T12:26:56.052Z,90.3
2016-08-10T12:27:56.023Z,90.78
2016-08-10T12:28:55.988Z,90.39
2016-08-10T12:29:55.952Z,90.68
2016-08-10T12:30:55.921Z,90.78
2016-08-10T12:31:55.887Z,90.01
2016-08-10T12:32:55.853Z,89.53
2016-08-10T12:33:55.819Z,88.68
2016-08-10T12:34:55.786Z,89.25
2016-08-10T12:35:55.750Z,89.44
2016-08-10T12:36:55.024Z,89.15
2016-08-10T12:37:55.688Z,89.06
2016-08-10T12:38:54.958Z,89.53
2016-08-10T12:39:54.929Z,89.73
2016-08-10T12:40:55.596Z,90.01
2016-08-10T12:41:55.555Z,90.39
2016-08-10T12:42:55.527Z,89.48
2016-08-10T12:43:54.791Z,89.29
2016-08-10T12:44:55.457Z,89.01
2016-08-10T12:45:55.430Z,87.09
2016-08-10T12:46:55.393Z,87.29
2016-08-10T12:47:55.358Z,88.05
2016-08-10T12:48:54.627Z,87.48
2016-08-10T12:49:54.595Z,87.57
2016-08-10T12:50:55.260Z,87.57
2016-08-10T12:51:55.229Z,88.15
2016-08-10T12:52:55.195Z,87.48
2016-08-10T12:53:55.160Z,87.09
2016-08-10T12:54:55.130Z,86.8
2016-08-10T12:55:55.099Z,87.09
2016-08-10T12:56:55.067Z,87.57
2016-08-10T12:57:54.336Z,86.61
2016-08-10T12:58:55.001Z,86.9
2016-08-10T12:59:54.269Z,85.94
2016-08-10T13:00:54.933Z,84.7
2016-08-10T13:01:54.899Z,83.08